Time;durP1;ratioP1;P1;durP2;ratioP2;P2;SDS_P1;SDS_P2;PMS_P1;PMS_P2;Temp;Humidity;BMP_temperature;BMP_pressure;BME280_temperature;BME280_humidity;BME280_pressure;Samples;Min_cycle;Max_cycle;Signal;HPM_P1;HPM_P2
2021/12/26 03:11:44;;;;;;;12.80;4.28;;;;;;;-2.87;75.05;99497.38;6395452;27;20377;-74
2021/12/26 03:14:45;;;;;;;9.23;4.05;;;;;;;-2.61;72.52;99508.03;6393814;27;20082;-74
2021/12/26 03:17:47;;;;;;;8.07;4.07;;;;;;;-2.59;71.54;99504.59;6394944;27;20054;-74
2021/12/26 03:20:50;;;;;;;9.48;3.58;;;;;;;-2.50;71.81;99512.09;6394125;27;20051;-74
2021/12/26 03:23:50;;;;;;;6.72;3.38;;;;;;;-2.47;72.74;99499.31;6394220;27;20051;-74
2021/12/26 03:27:01;;;;;;;6.95;3.50;;;;;;;-2.52;73.01;99495.97;6393729;27;20077;-74
2021/12/26 03:30:05;;;;;;;13.32;4.00;;;;;;;-2.61;72.54;99501.25;6394781;27;20050;-74
2021/12/26 03:33:09;;;;;;;6.60;3.13;;;;;;;-2.74;70.96;99504.84;6393269;27;20038;-74
2021/12/26 03:36:10;;;;;;;8.07;3.67;;;;;;;-2.68;70.58;99499.63;6394741;27;20047;-74
2021/12/26 03:39:11;;;;;;;7.60;3.80;;;;;;;-2.65;69.27;99499.59;6394143;27;20519;-75
2021/12/26 03:42:12;;;;;;;12.55;3.92;;;;;;;-2.60;70.36;99502.91;6394291;27;20035;-74
2021/12/26 03:45:12;;;;;;;5.45;2.58;;;;;;;-2.76;68.65;99491.25;6393409;27;20526;-74
2021/12/26 03:48:14;;;;;;;8.85;3.72;;;;;;;-2.76;70.69;99504.00;6394498;27;20045;-74
2021/12/26 03:51:15;;;;;;;6.57;3.03;;;;;;;-2.90;69.54;99505.09;6394323;27;20039;-74
2021/12/26 03:54:16;;;;;;;8.13;2.85;;;;;;;-2.90;70.05;99509.34;6394508;27;20517;-74
2021/12/26 03:57:18;;;;;;;6.93;2.72;;;;;;;-2.79;70.77;99504.09;6394004;27;20180;-75
2021/12/26 04:00:20;;;;;;;7.25;2.88;;;;;;;-2.83;71.32;99516.88;6394133;27;20051;-75
2021/12/26 04:03:21;;;;;;;4.05;1.90;;;;;;;-2.89;70.04;99511.03;6392604;27;20042;-74
2021/12/26 04:06:23;;;;;;;7.72;2.80;;;;;;;-2.87;70.67;99499.91;6375308;27;20054;-74
2021/12/26 04:09:23;;;;;;;5.82;2.30;;;;;;;-2.87;70.35;99506.75;6392626;27;20043;-75
2021/12/26 04:12:24;;;;;;;5.32;2.75;;;;;;;-2.91;69.96;99510.22;6376755;27;20051;-75
2021/12/26 04:15:27;;;;;;;3.38;2.00;;;;;;;-2.94;70.25;99507.72;6375613;27;20083;-74
2021/12/26 04:18:28;;;;;;;;;;;;;;;-2.91;69.64;99498.28;6376106;27;20197;-74
2021/12/26 04:21:28;;;;;;;2.75;1.30;;;;;;;-3.07;68.90;99494.25;6375641;27;19919;-74
2021/12/26 04:24:30;;;;;;;4.65;2.53;;;;;;;-2.98;70.21;99506.91;6375482;27;20066;-74
2021/12/26 04:27:31;;;;;;;6.95;3.80;;;;;;;-2.88;70.86;99498.25;6376381;27;20076;-74
2021/12/26 04:30:33;;;;;;;4.78;2.03;;;;;;;-2.94;68.08;99495.78;6375084;27;20054;-74
2021/12/26 04:33:33;;;;;;;5.50;3.00;;;;;;;-2.92;68.95;99499.16;6358259;27;20446;-74
2021/12/26 04:36:34;;;;;;;5.70;2.35;;;;;;;-3.07;69.64;99502.78;6375108;27;20043;-74
2021/12/26 04:39:35;;;;;;;8.10;3.38;;;;;;;-2.99;68.82;99504.38;6375250;27;20039;-74
2021/12/26 04:42:38;;;;;;;8.30;3.65;;;;;;;-2.99;69.20;99506.91;6375861;27;20031;-74
2021/12/26 04:45:39;;;;;;;8.48;2.45;;;;;;;-2.99;69.00;99494.16;6374603;27;20395;-74
2021/12/26 04:48:43;;;;;;;4.25;2.55;;;;;;;-3.04;68.73;99497.63;6375939;27;20046;-74
2021/12/26 04:51:44;;;;;;;7.57;2.83;;;;;;;-3.18;68.87;99489.31;6375471;27;20039;-74
2021/12/26 04:54:45;;;;;;;9.13;3.10;;;;;;;-3.12;68.77;99494.34;6375496;27;20089;-74
2021/12/26 04:57:47;;;;;;;4.50;1.88;;;;;;;-3.20;67.84;99497.88;6374707;27;20443;-75
2021/12/26 05:00:48;;;;;;;6.18;3.08;;;;;;;-3.12;68.59;99501.16;6375706;27;20390;-74
2021/12/26 05:03:49;;;;;;;5.53;2.75;;;;;;;-3.15;68.40;99496.94;6374430;27;20083;-74
2021/12/26 05:06:50;;;;;;;5.10;2.65;;;;;;;-3.07;66.58;99496.81;6374372;27;20435;-74
2021/12/26 05:09:51;;;;;;;6.00;2.92;;;;;;;-2.96;66.11;99492.41;6375009;27;20058;-74
2021/12/26 05:12:51;;;;;;;9.25;3.50;;;;;;;-2.94;66.71;99500.88;6374336;27;20039;-75
2021/12/26 05:15:52;;;;;;;6.00;3.15;;;;;;;-2.92;67.28;99493.22;6375394;27;20043;-75
2021/12/26 05:18:53;;;;;;;9.70;3.55;;;;;;;-2.87;66.90;99496.53;6357095;27;20501;-75
2021/12/26 05:21:54;;;;;;;10.45;2.97;;;;;;;-3.10;64.19;99502.81;6373516;27;20379;-75
2021/12/26 05:24:55;;;;;;;5.38;2.72;;;;;;;-3.19;64.69;99502.97;6373732;27;20077;-74
2021/12/26 05:27:56;;;;;;;11.23;3.90;;;;;;;-3.12;65.62;99502.00;6375500;27;20166;-74
2021/12/26 05:30:57;;;;;;;7.93;2.83;;;;;;;-3.12;66.06;99490.94;6408583;27;20075;-74
2021/12/26 05:33:57;;;;;;;7.57;3.13;;;;;;;-3.03;66.11;99503.56;6375220;27;20050;-74
2021/12/26 05:36:58;;;;;;;7.07;3.10;;;;;;;-3.18;65.46;99501.25;6374650;27;20039;-74
2021/12/26 05:40:02;;;;;;;6.95;3.25;;;;;;;-3.09;66.02;99501.09;6375078;27;20550;-74
2021/12/26 05:43:03;;;;;;;7.07;3.08;;;;;;;-3.12;66.32;99507.09;6373501;27;20533;-74
2021/12/26 05:46:04;;;;;;;12.98;4.00;;;;;;;-3.08;67.57;99515.56;6356520;27;20051;-74
2021/12/26 05:49:05;;;;;;;10.00;4.18;;;;;;;-3.14;65.78;99510.53;6374617;27;20092;-74
2021/12/26 05:52:07;;;;;;;13.60;4.20;;;;;;;-3.09;65.97;99519.81;6373386;27;20414;-74
2021/12/26 05:55:09;;;;;;;14.57;3.05;;;;;;;-3.26;65.48;99519.19;6374665;27;20047;-74
2021/12/26 05:58:10;;;;;;;8.40;3.57;;;;;;;-3.11;65.44;99525.78;6372626;27;20085;-74
2021/12/26 06:01:11;;;;;;;8.85;4.05;;;;;;;-3.02;66.16;99524.84;6373104;27;20466;-74
2021/12/26 06:04:12;;;;;;;7.38;3.75;;;;;;;-3.13;64.54;99527.53;6373069;27;20416;-74
2021/12/26 06:07:13;;;;;;;8.90;3.63;;;;;;;-3.18;66.28;99524.22;6374043;27;20039;-74
2021/12/26 06:10:14;;;;;;;6.22;2.75;;;;;;;-3.17;65.41;99534.41;6372819;27;20071;-73
2021/12/26 06:13:15;;;;;;;5.75;3.10;;;;;;;-3.09;66.18;99535.16;6374142;27;20092;-74
2021/12/26 06:16:16;;;;;;;7.70;3.08;;;;;;;-3.09;66.06;99536.81;6372666;27;20039;-73
2021/12/26 06:19:17;;;;;;;13.02;3.40;;;;;;;-3.17;67.99;99536.94;6372919;27;20113;-74
2021/12/26 06:22:17;;;;;;;5.70;2.70;;;;;;;-3.50;66.79;99550.94;6355553;27;20043;-74
2021/12/26 06:25:18;;;;;;;6.32;2.85;;;;;;;-3.14;65.15;99547.09;6373943;27;20039;-73
2021/12/26 06:28:19;;;;;;;6.43;2.85;;;;;;;-3.26;64.59;99549.81;6372510;27;20048;-74
2021/12/26 06:31:20;;;;;;;8.23;3.38;;;;;;;-3.30;65.80;99561.75;6373981;27;20542;-74
2021/12/26 06:34:21;;;;;;;10.18;2.42;;;;;;;-3.36;64.44;99566.09;6372143;27;20039;-74
2021/12/26 06:37:22;;;;;;;6.07;2.75;;;;;;;-3.27;64.00;99561.75;6338295;27;20039;-74
2021/12/26 06:40:23;;;;;;;4.57;2.50;;;;;;;-3.25;64.32;99566.84;6373548;27;20035;-74
2021/12/26 06:43:24;;;;;;;9.50;3.20;;;;;;;-3.28;65.80;99567.69;6372372;27;20043;-74
2021/12/26 06:46:25;;;;;;;9.15;3.45;;;;;;;-3.19;66.37;99561.66;6372113;27;20039;-74
2021/12/26 06:49:26;;;;;;;10.38;4.03;;;;;;;-3.32;67.64;99570.31;6373240;27;20043;-74
2021/12/26 06:52:27;;;;;;;8.25;3.25;;;;;;;-3.31;65.69;99577.13;6372391;27;20051;-74
2021/12/26 06:55:28;;;;;;;5.47;2.00;;;;;;;-3.43;64.95;99580.66;6372123;27;20047;-74
2021/12/26 06:58:29;;;;;;;10.13;3.58;;;;;;;-3.29;66.27;99585.59;6371848;28;20482;-74
2021/12/26 07:01:30;;;;;;;9.23;3.42;;;;;;;-3.08;66.09;99592.13;6372828;27;20043;-74
2021/12/26 07:04:31;;;;;;;8.02;2.95;;;;;;;-3.34;66.25;99588.19;6372929;27;20120;-74
2021/12/26 07:07:31;;;;;;;8.75;3.70;;;;;;;-3.32;67.65;99586.44;6373214;28;20043;-73
2021/12/26 07:10:33;;;;;;;7.72;3.53;;;;;;;-3.32;66.71;99596.66;6371943;28;20131;-74
2021/12/26 07:13:34;;;;;;;8.43;3.95;;;;;;;-3.26;66.60;99590.66;6371774;28;20088;-74
2021/12/26 07:16:34;;;;;;;6.80;3.40;;;;;;;-3.41;68.30;99594.22;6373248;28;20051;-74
2021/12/26 07:19:35;;;;;;;7.07;3.28;;;;;;;-3.34;65.09;99590.72;6373018;28;20043;-74
2021/12/26 07:22:37;;;;;;;6.65;3.28;;;;;;;-3.53;64.93;99597.75;6372046;28;20043;-74
2021/12/26 07:25:38;;;;;;;7.13;3.45;;;;;;;-3.33;65.66;99601.81;6371927;28;20609;-74
2021/12/26 07:28:39;;;;;;;7.65;3.33;;;;;;;-3.25;64.99;99608.50;6372649;28;20043;-74
2021/12/26 07:31:40;;;;;;;8.27;3.58;;;;;;;-3.25;67.41;99617.88;6372767;28;20047;-74
2021/12/26 07:34:41;;;;;;;12.63;4.32;;;;;;;-3.38;65.24;99611.19;6372276;27;20035;-74
2021/12/26 07:37:42;;;;;;;4.93;2.50;;;;;;;-3.26;64.63;99622.09;6372374;27;20039;-74
2021/12/26 07:40:43;;;;;;;5.97;2.83;;;;;;;-3.22;65.24;99619.53;6372153;27;20062;-74
2021/12/26 07:43:44;;;;;;;6.30;3.47;;;;;;;-2.91;65.47;99638.69;6353929;28;20058;-74
2021/12/26 07:46:45;;;;;;;13.80;4.68;;;;;;;-2.94;64.45;99623.44;6374555;27;20047;-74
2021/12/26 07:49:46;;;;;;;8.18;3.58;;;;;;;-3.01;66.09;99633.72;6377103;27;20363;-74
2021/12/26 07:52:48;;;;;;;11.32;2.90;;;;;;;-3.11;64.92;99633.00;6376648;27;20058;-74
2021/12/26 07:55:49;;;;;;;15.18;4.80;;;;;;;-2.86;64.15;99636.09;6358854;27;20039;-74
2021/12/26 07:58:49;;;;;;;8.57;3.88;;;;;;;-3.07;63.68;99634.66;6376626;27;20042;-73
2021/12/26 08:01:50;;;;;;;9.95;3.90;;;;;;;-3.00;64.55;99640.53;6376469;27;20058;-74
2021/12/26 08:04:51;;;;;;;10.20;3.53;;;;;;;-3.13;63.53;99642.38;6357997;27;20114;-74
2021/12/26 08:07:52;;;;;;;9.43;3.08;;;;;;;-3.13;63.32;99650.03;6357343;27;20060;-74
2021/12/26 08:10:53;;;;;;;7.57;3.88;;;;;;;-3.12;64.30;99649.19;6376380;27;20096;-74
2021/12/26 08:13:54;;;;;;;8.88;3.65;;;;;;;-3.10;63.84;99655.13;6376327;27;20080;-74
2021/12/26 08:16:55;;;;;;;9.27;3.67;;;;;;;-3.15;63.52;99660.28;6376118;27;20435;-74
2021/12/26 08:19:56;;;;;;;9.35;3.78;;;;;;;-2.96;65.05;99662.63;6374350;27;20046;-74
2021/12/26 08:22:57;;;;;;;9.20;4.70;;;;;;;-3.13;64.13;99663.66;6357237;27;20499;-74
2021/12/26 08:25:59;;;;;;;7.60;3.75;;;;;;;-3.01;63.86;99665.19;6376133;27;20516;-74
2021/12/26 08:29:00;;;;;;;12.38;4.72;;;;;;;-2.97;63.47;99664.31;6374164;27;20050;-74
2021/12/26 08:32:01;;;;;;;10.38;4.50;;;;;;;-3.00;64.39;99648.19;6375954;27;20406;-74
2021/12/26 08:35:04;;;;;;;14.05;5.78;;;;;;;-2.89;64.51;99661.66;6367536;27;20043;-74
2021/12/26 08:38:05;;;;;;;13.98;5.00;;;;;;;-2.76;64.69;99664.91;6366620;27;20050;-74
2021/12/26 08:41:07;;;;;;;13.55;6.28;;;;;;;-2.60;65.56;99663.00;6355804;27;20054;-73
2021/12/26 08:44:07;;;;;;;19.67;11.13;;;;;;;-2.66;64.39;99654.56;6360313;27;20490;-74
2021/12/26 08:47:13;;;;;;;8.65;3.42;;;;;;;-2.85;62.30;99658.22;6364333;27;20060;-74
2021/12/26 08:50:14;;;;;;;14.32;7.00;;;;;;;-2.66;63.44;99666.47;6346105;28;20036;-74
2021/12/26 08:53:15;;;;;;;12.38;6.82;;;;;;;-2.68;62.49;99665.66;6348569;28;20032;-71
2021/12/26 08:56:16;;;;;;;17.40;8.10;;;;;;;-2.60;63.82;99663.84;6354896;28;20044;-74
2021/12/26 08:59:17;;;;;;;10.90;4.60;;;;;;;-2.74;62.51;99669.16;6350111;28;20513;-73
2021/12/26 09:02:18;;;;;;;12.90;5.82;;;;;;;-2.68;64.35;99650.31;6349167;28;20107;-74
2021/12/26 09:05:19;;;;;;;11.20;4.25;;;;;;;-2.64;61.38;99652.84;6349936;28;20040;-74
2021/12/26 09:08:21;;;;;;;12.80;4.45;;;;;;;-2.75;60.94;99653.84;6348447;28;20043;-74
2021/12/26 09:11:22;;;;;;;9.68;4.50;;;;;;;-2.76;62.26;99652.13;6331823;28;20052;-74
2021/12/26 09:14:23;;;;;;;14.38;4.78;;;;;;;-2.78;60.46;99649.63;6347770;28;20118;-75
2021/12/26 09:17:24;;;;;;;7.43;3.35;;;;;;;-3.05;60.12;99650.78;6332541;28;20043;-75
2021/12/26 09:20:26;;;;;;;8.05;3.03;;;;;;;-2.93;59.82;99655.75;6348719;28;20039;-76
2021/12/26 09:23:27;;;;;;;10.00;4.60;;;;;;;-3.04;62.54;99640.56;6365295;27;20059;-74
2021/12/26 09:26:28;;;;;;;11.73;3.95;;;;;;;-2.79;60.07;99642.81;6349280;28;20552;-75
2021/12/26 09:29:29;;;;;;;12.93;4.05;;;;;;;-2.81;59.83;99630.94;6348041;28;20048;-74
2021/12/26 09:32:30;;;;;;;4.22;1.58;;;;;;;-2.95;58.21;99643.88;6338120;28;20051;-76
2021/12/26 09:35:32;;;;;;;8.13;3.63;;;;;;;-2.77;59.71;99624.91;6316075;28;20067;-75
2021/12/26 09:38:33;;;;;;;4.78;3.15;;;;;;;-2.58;60.12;99628.06;6352086;27;20529;-76
2021/12/26 09:41:36;;;;;;;10.43;3.85;;;;;;;-2.60;59.31;99629.78;6352687;27;20035;-75
2021/12/26 09:44:40;;;;;;;9.77;3.95;;;;;;;-2.41;58.57;99622.69;6345224;27;20497;-76
2021/12/26 09:47:42;;;;;;;9.13;4.00;;;;;;;-2.34;59.54;99629.41;6331690;28;20049;-77
2021/12/26 09:50:43;;;;;;;10.13;3.92;;;;;;;-2.21;60.01;99627.50;6320301;27;20128;-76
2021/12/26 09:53:44;;;;;;;10.73;4.38;;;;;;;-2.27;58.98;99628.44;6367211;27;20553;-76
2021/12/26 09:56:45;;;;;;;10.75;3.95;;;;;;;-2.12;59.30;99632.47;6362704;27;20554;-77
2021/12/26 09:59:48;;;;;;;8.07;4.15;;;;;;;-1.99;60.50;99630.56;6371960;27;20068;-76
2021/12/26 10:03:16;;;;;;;11.43;3.50;;;;;;;-1.80;60.65;99637.06;6356339;27;20047;-76
2021/12/26 10:06:20;;;;;;;11.73;4.82;;;;;;;-2.00;60.03;99623.75;6367388;27;20043;-77
2021/12/26 10:09:21;;;;;;;13.30;4.75;;;;;;;-1.92;57.71;99611.69;6352867;27;20054;-77
2021/12/26 10:12:23;;;;;;;17.27;5.00;;;;;;;-1.68;57.63;99621.50;6369838;27;20031;-77
2021/12/26 10:15:47;;;;;;;13.45;5.20;;;;;;;-1.77;57.27;99623.34;6368895;27;20081;-76
2021/12/26 10:18:48;;;;;;;15.00;5.43;;;;;;;-1.89;57.64;99622.72;6355142;27;20499;-76
2021/12/26 10:21:57;;;;;;;10.75;4.38;;;;;;;-1.80;59.41;99624.25;6373490;27;20045;-76
2021/12/26 10:24:58;;;;;;;11.68;4.28;;;;;;;-1.30;57.64;99612.25;6371781;27;20104;-76
2021/12/26 10:28:12;;;;;;;6.30;3.22;;;;;;;-1.50;55.55;99599.84;6338384;27;20409;-76
2021/12/26 10:31:16;;;;;;;7.43;3.92;;;;;;;-1.29;58.87;99611.38;6335897;27;20518;-77
2021/12/26 10:34:22;;;;;;;8.88;3.70;;;;;;;-1.17;56.33;99605.19;6370747;27;20406;-76
2021/12/26 10:37:34;;;;;;;4.65;2.50;;;;;;;-1.35;55.70;99606.38;6370069;27;20050;-78
2021/12/26 10:40:37;;;;;;;11.68;3.92;;;;;;;-1.03;57.91;99600.63;6368519;27;20039;-77
2021/12/26 10:43:45;;;;;;;7.85;4.05;;;;;;;-0.80;58.04;99601.84;6369978;27;20050;-76
2021/12/26 10:46:58;;;;;;;8.77;4.05;;;;;;;-0.67;55.58;99598.13;6371081;27;20097;-77
2021/12/26 10:50:06;;;;;;;8.43;3.70;;;;;;;-0.76;53.24;99600.91;6367021;27;20050;-77
2021/12/26 10:53:14;;;;;;;5.53;2.53;;;;;;;-1.32;52.92;99603.78;6370334;27;20484;-77
2021/12/26 10:56:21;;;;;;;10.00;3.53;;;;;;;-1.31;54.25;99599.50;6371624;27;20035;-77
2021/12/26 10:59:22;;;;;;;8.20;3.17;;;;;;;-1.38;53.39;99611.56;6368108;27;20104;-76
2021/12/26 11:02:26;;;;;;;9.32;3.95;;;;;;;-1.33;53.72;99612.31;6369439;28;20439;-75
2021/12/26 11:05:39;;;;;;;8.10;3.30;;;;;;;-1.03;53.01;99607.44;6370042;28;20103;-76
2021/12/26 11:08:44;;;;;;;9.65;3.95;;;;;;;-0.70;52.79;99603.34;6353594;28;20071;-76
2021/12/26 11:12:07;;;;;;;11.52;3.75;;;;;;;-0.38;52.49;99590.66;6370514;28;20049;-76
2021/12/26 11:15:10;;;;;;;8.20;3.75;;;;;;;-0.62;51.56;99601.44;6371462;27;20475;-76
2021/12/26 11:18:14;;;;;;;8.25;4.28;;;;;;;-0.52;53.41;99606.34;6370719;28;20042;-76
2021/12/26 11:21:15;;;;;;;9.50;3.78;;;;;;;-0.49;52.57;99594.31;6372505;27;20402;-75
2021/12/26 11:24:16;;;;;;;8.90;3.95;;;;;;;-0.68;54.38;99616.97;6375864;27;20043;-76
2021/12/26 11:27:17;;;;;;;6.50;3.67;;;;;;;-0.72;54.46;99629.84;6377011;27;20043;-76
2021/12/26 11:30:19;;;;;;;9.00;3.60;;;;;;;-0.72;51.98;99622.16;6375667;27;20123;-76
2021/12/26 11:33:21;;;;;;;10.18;3.72;;;;;;;-0.89;51.08;99610.56;6377117;27;20046;-76
2021/12/26 11:36:24;;;;;;;6.70;3.03;;;;;;;-1.00;51.51;99617.63;6375446;27;20043;-76
2021/12/26 11:39:27;;;;;;;5.72;3.00;;;;;;;-0.85;53.25;99616.47;6376664;27;20050;-76
2021/12/26 11:43:09;;;;;;;11.73;3.20;;;;;;;-0.81;52.27;99612.97;6373721;27;20039;-76
2021/12/26 11:46:35;;;;;;;4.63;2.60;;;;;;;-0.79;51.50;99626.59;6358141;27;20432;-76
2021/12/26 11:50:01;;;;;;;6.03;2.55;;;;;;;-0.86;51.06;99615.63;6357885;27;20085;-75
2021/12/26 11:53:27;;;;;;;5.47;2.92;;;;;;;-0.81;50.06;99610.41;6374774;27;20050;-76
2021/12/26 11:56:58;;;;;;;4.07;2.28;;;;;;;-0.94;50.06;99622.63;6375771;27;20058;-76
2021/12/26 12:00:11;;;;;;;9.60;3.67;;;;;;;-0.67;52.70;99616.06;6369240;27;20043;-76
2021/12/26 12:03:19;;;;;;;;;;;;;;;-0.70;51.28;99617.84;6372495;27;20657;-76
2021/12/26 12:06:30;;;;;;;4.72;2.83;;;;;;;-0.90;51.49;99614.00;6371256;27;19919;-77
2021/12/26 12:09:40;;;;;;;6.88;3.15;;;;;;;-1.05;50.65;99627.97;6374403;27;20490;-77
2021/12/26 12:12:42;;;;;;;6.57;3.10;;;;;;;-1.04;51.08;99626.25;6373659;27;20092;-76
2021/12/26 12:16:03;;;;;;;5.57;3.28;;;;;;;-0.84;52.54;99615.59;6374803;27;20547;-76
2021/12/26 12:19:10;;;;;;;6.97;3.40;;;;;;;-1.00;54.67;99625.31;6375361;27;20043;-77
2021/12/26 12:22:11;;;;;;;8.88;4.00;;;;;;;-0.74;53.20;99629.03;6375697;27;20064;-75
2021/12/26 12:25:33;;;;;;;7.53;3.22;;;;;;;-0.71;53.76;99628.97;6374891;27;20039;-76
2021/12/26 12:28:46;;;;;;;14.68;3.90;;;;;;;-0.71;54.36;99623.84;6374652;27;20090;-76
2021/12/26 12:31:48;;;;;;;9.38;3.88;;;;;;;-0.71;54.18;99626.41;6355150;27;20100;-75
2021/12/26 12:35:01;;;;;;;9.25;4.22;;;;;;;-0.78;55.94;99637.66;6374322;27;20524;-76
2021/12/26 12:38:21;;;;;;;11.02;4.32;;;;;;;-0.93;55.49;99643.97;6375546;27;20118;-77
2021/12/26 12:41:28;;;;;;;8.05;3.92;;;;;;;-1.00;54.93;99652.66;6374026;27;20046;-76
2021/12/26 12:44:44;;;;;;;10.07;3.92;;;;;;;-0.93;54.09;99646.50;6368502;27;20543;-77
2021/12/26 12:47:45;;;;;;;7.15;3.70;;;;;;;-0.87;56.11;99641.25;6372560;27;20067;-77
2021/12/26 12:50:46;;;;;;;7.57;3.65;;;;;;;-0.73;54.38;99653.78;6372581;27;20045;-77
2021/12/26 12:53:55;;;;;;;11.50;4.47;;;;;;;-0.63;56.01;99642.47;6374076;27;20080;-77
2021/12/26 12:57:00;;;;;;;11.02;3.83;;;;;;;-0.50;52.19;99637.91;6370886;27;20067;-75
2021/12/26 13:00:03;;;;;;;6.82;3.50;;;;;;;-0.69;51.81;99632.34;6374274;27;20050;-75
2021/12/26 13:03:05;;;;;;;9.68;4.75;;;;;;;-0.85;51.15;99635.22;6374592;27;20043;-74
2021/12/26 13:06:09;;;;;;;15.20;4.72;;;;;;;-0.92;51.87;99631.13;6374480;27;20475;-74
2021/12/26 13:09:13;;;;;;;8.50;4.45;;;;;;;-1.00;53.57;99632.16;6374399;27;20054;-74
2021/12/26 13:12:15;;;;;;;6.90;3.38;;;;;;;-1.01;51.80;99633.84;6374407;27;20039;-74
2021/12/26 13:15:16;;;;;;;7.55;3.47;;;;;;;-1.04;52.60;99636.50;6373348;27;20039;-74
2021/12/26 13:18:17;;;;;;;8.20;4.20;;;;;;;-1.12;52.17;99620.44;6372098;27;20039;-74
2021/12/26 13:21:19;;;;;;;8.80;4.03;;;;;;;-1.10;53.48;99641.75;6354294;27;20266;-74
2021/12/26 13:24:34;;;;;;;13.07;5.60;;;;;;;-1.21;53.05;99641.97;6371897;27;20051;-74
2021/12/26 13:27:35;;;;;;;13.50;4.75;;;;;;;-1.29;53.33;99636.97;6373444;27;20066;-74
2021/12/26 13:30:42;;;;;;;12.93;4.70;;;;;;;-1.18;54.14;99644.44;6372940;27;20047;-75
2021/12/26 13:33:49;;;;;;;8.60;4.03;;;;;;;-1.14;53.36;99635.84;6372342;27;20043;-76
2021/12/26 13:36:50;;;;;;;6.35;3.00;;;;;;;-1.16;53.29;99649.53;6373817;27;20035;-76
2021/12/26 13:39:54;;;;;;;9.00;4.18;;;;;;;-1.13;53.76;99644.34;6372648;27;20121;-74
2021/12/26 13:42:55;;;;;;;11.82;5.93;;;;;;;-1.24;54.50;99655.63;6377832;27;20046;-74
2021/12/26 13:45:57;;;;;;;14.60;6.03;;;;;;;-1.10;54.33;99652.81;6354914;27;20043;-76
2021/12/26 13:48:59;;;;;;;27.15;9.52;;;;;;;-1.03;55.59;99649.28;6373468;27;20434;-76
2021/12/26 13:52:01;;;;;;;10.10;3.97;;;;;;;-1.23;52.13;99654.78;6373353;27;20050;-75
2021/12/26 13:55:03;;;;;;;26.15;7.55;;;;;;;-1.19;52.47;99652.16;6372029;27;20051;-77
2021/12/26 13:58:11;;;;;;;11.30;5.07;;;;;;;-1.31;51.75;99650.69;6372005;27;20038;-75
2021/12/26 14:01:13;;;;;;;37.83;13.75;;;;;;;-1.28;52.28;99659.13;6371967;27;20521;-76
2021/12/26 14:04:13;;;;;;;48.03;11.87;;;;;;;-1.18;53.74;99664.94;6373250;27;20046;-76
2021/12/26 14:07:22;;;;;;;23.55;6.95;;;;;;;-1.35;54.06;99661.84;6370674;27;20047;-76
2021/12/26 14:10:23;;;;;;;42.17;11.30;;;;;;;-1.32;54.22;99674.59;6363064;27;20066;-76
2021/12/26 14:13:25;;;;;;;22.75;6.93;;;;;;;-1.51;52.82;99669.78;6370397;27;20035;-76
2021/12/26 14:16:30;;;;;;;25.10;10.20;;;;;;;-1.76;53.75;99669.38;6365432;27;20043;-76
2021/12/26 14:19:31;;;;;;;20.45;7.97;;;;;;;-1.89;55.17;99673.03;6338396;27;20047;-75
2021/12/26 14:22:34;;;;;;;28.48;10.75;;;;;;;-1.75;53.64;99673.66;6371940;27;20091;-75
2021/12/26 14:25:37;;;;;;;17.85;6.88;;;;;;;-1.75;53.61;99668.53;6346559;27;20039;-76
2021/12/26 14:28:54;;;;;;;25.20;8.07;;;;;;;-1.73;54.41;99669.34;6371426;27;20047;-76
2021/12/26 14:31:57;;;;;;;22.50;6.78;;;;;;;-1.69;54.84;99673.53;6370863;27;20035;-76
2021/12/26 14:34:57;;;;;;;11.18;4.90;;;;;;;-1.92;53.13;99678.19;6369479;27;20046;-76
2021/12/26 14:38:13;;;;;;;20.95;8.15;;;;;;;-1.89;54.29;99676.41;6371314;27;20047;-76
2021/12/26 14:41:14;;;;;;;36.35;8.00;;;;;;;-1.93;54.29;99673.94;6368296;27;20045;-75
2021/12/26 14:44:19;;;;;;;15.88;6.07;;;;;;;-2.04;54.18;99669.84;6352057;27;20031;-76
2021/12/26 14:47:26;;;;;;;9.25;3.97;;;;;;;-2.14;56.78;99673.41;6372142;27;20039;-77
2021/12/26 14:50:30;;;;;;;21.35;7.35;;;;;;;-2.13;55.98;99669.13;6369698;27;20035;-76
2021/12/26 14:53:30;;;;;;;13.05;5.00;;;;;;;-2.23;57.12;99666.69;6371913;27;20491;-76
2021/12/26 14:56:49;;;;;;;8.00;3.78;;;;;;;-2.20;56.64;99683.72;6370420;27;20049;-75
2021/12/26 15:00:15;;;;;;;16.75;5.70;;;;;;;-2.27;57.41;99690.63;6370467;27;20555;-76
2021/12/26 15:03:18;;;;;;;18.40;7.45;;;;;;;-2.27;57.68;99688.06;6371882;27;20038;-75
2021/12/26 15:06:19;;;;;;;24.80;7.65;;;;;;;-2.32;57.37;99689.84;6368217;27;20371;-75
2021/12/26 15:09:35;;;;;;;29.77;9.48;;;;;;;-2.25;58.63;99691.44;6335576;28;20079;-75
2021/12/26 15:12:39;;;;;;;41.60;13.30;;;;;;;-2.18;57.19;99691.34;6355038;28;20045;-75
2021/12/26 15:15:57;;;;;;;20.05;8.18;;;;;;;-2.45;57.48;99690.88;6371491;27;20039;-74
2021/12/26 15:18:58;;;;;;;21.67;7.53;;;;;;;-2.46;56.97;99686.66;6371436;27;20044;-76
2021/12/26 15:22:04;;;;;;;32.10;10.57;;;;;;;-2.28;57.82;99688.94;6371883;27;20456;-76
2021/12/26 15:25:05;;;;;;;41.22;11.68;;;;;;;-2.42;57.86;99693.41;6370789;28;20039;-75
2021/12/26 15:28:14;;;;;;;25.67;9.30;;;;;;;-2.43;57.33;99699.38;6372976;27;20421;-76
2021/12/26 15:31:16;;;;;;;33.92;17.00;;;;;;;-2.41;58.34;99691.69;6359431;27;20062;-75
2021/12/26 15:34:17;;;;;;;58.25;25.23;;;;;;;-2.54;58.57;99691.84;6359323;27;20039;-75
2021/12/26 15:37:18;;;;;;;44.10;17.30;;;;;;;-2.65;58.48;99696.28;6366561;27;20051;-76
2021/12/26 15:40:19;;;;;;;17.25;9.18;;;;;;;-2.60;58.41;99688.53;6367375;27;20104;-76
2021/12/26 15:43:19;;;;;;;14.13;7.13;;;;;;;-2.68;58.14;99686.94;6367921;27;20039;-75
2021/12/26 15:46:21;;;;;;;15.55;6.50;;;;;;;-2.59;58.05;99695.31;6370187;28;20035;-77
2021/12/26 15:49:30;;;;;;;17.30;7.00;;;;;;;-2.79;58.33;99687.94;6371506;27;20422;-75
2021/12/26 15:52:31;;;;;;;;;;;;;;;-2.66;57.88;99686.91;6371453;27;20047;-75
2021/12/26 15:55:32;;;;;;;11.80;4.68;;;;;;;-2.76;57.77;99691.31;6371126;27;20336;-75
2021/12/26 15:58:33;;;;;;;13.73;5.07;;;;;;;-2.83;58.28;99690.50;6372003;27;20066;-76
2021/12/26 16:01:35;;;;;;;10.00;4.43;;;;;;;-2.73;57.97;99688.69;6370124;28;20039;-76
2021/12/26 16:04:36;;;;;;;9.80;4.60;;;;;;;-2.75;58.25;99692.16;6369569;28;20105;-75
2021/12/26 16:07:37;;;;;;;11.88;4.50;;;;;;;-2.89;58.06;99705.91;6369487;27;20061;-76
2021/12/26 16:10:38;;;;;;;7.05;3.97;;;;;;;-2.89;58.22;99700.81;6374940;27;20450;-75
2021/12/26 16:13:39;;;;;;;4.63;2.55;;;;;;;-2.90;57.89;99711.88;6373351;27;20115;-77
2021/12/26 16:16:41;;;;;;;6.72;3.20;;;;;;;-2.93;57.46;99717.03;6375038;27;20050;-75
2021/12/26 16:19:41;;;;;;;8.93;4.15;;;;;;;-2.95;58.20;99703.44;6375077;27;20043;-76
2021/12/26 16:22:42;;;;;;;6.30;3.90;;;;;;;-2.95;58.73;99708.53;6357135;27;20043;-76
2021/12/26 16:25:44;;;;;;;7.68;3.25;;;;;;;-3.05;57.76;99717.16;6373555;27;20555;-75
2021/12/26 16:28:45;;;;;;;4.83;2.50;;;;;;;-3.03;57.83;99720.53;6361737;27;20509;-76
2021/12/26 16:31:45;;;;;;;6.68;2.63;;;;;;;-3.14;57.86;99725.75;6365334;27;20275;-75
2021/12/26 16:34:46;;;;;;;6.07;3.75;;;;;;;-3.09;58.61;99726.56;6373923;27;20402;-76
2021/12/26 16:37:50;;;;;;;14.70;4.38;;;;;;;-3.15;57.99;99729.19;6355478;27;20138;-76
2021/12/26 16:40:51;;;;;;;18.58;3.70;;;;;;;-3.05;57.56;99745.22;6372758;27;20043;-76
2021/12/26 16:43:52;;;;;;;13.38;4.43;;;;;;;-2.99;57.49;99739.22;6374022;27;20096;-75
2021/12/26 16:46:53;;;;;;;9.68;3.20;;;;;;;-3.21;57.35;99736.91;6373738;27;20542;-75
2021/12/26 16:49:57;;;;;;;19.70;5.95;;;;;;;-3.05;58.07;99750.34;6355634;27;20043;-76
2021/12/26 16:52:57;;;;;;;13.32;5.22;;;;;;;-3.10;57.36;99747.84;6366622;27;20080;-75
2021/12/26 16:55:59;;;;;;;23.13;7.38;;;;;;;-3.20;58.36;99745.41;6373788;27;20062;-75
2021/12/26 16:59:00;;;;;;;22.95;7.78;;;;;;;-3.26;58.90;99751.41;6375380;27;20047;-76
2021/12/26 17:02:00;;;;;;;11.57;5.30;;;;;;;-3.21;58.06;99756.47;6373651;27;20113;-75
2021/12/26 17:05:02;;;;;;;4.30;2.33;;;;;;;-3.29;57.10;99752.28;6374222;27;20402;-74
2021/12/26 17:08:05;;;;;;;10.68;4.40;;;;;;;-3.26;57.70;99754.78;6374325;27;20082;-76
2021/12/26 17:11:06;;;;;;;12.15;4.70;;;;;;;-3.19;57.81;99762.38;6370872;27;20063;-76
2021/12/26 17:14:07;;;;;;;5.15;2.47;;;;;;;-3.26;57.66;99759.91;6354706;27;20047;-76
2021/12/26 17:17:08;;;;;;;16.42;6.18;;;;;;;-3.25;57.62;99759.06;6372691;27;20118;-76
2021/12/26 17:20:14;;;;;;;9.80;5.00;;;;;;;-3.28;58.24;99753.97;6371754;27;20043;-75
2021/12/26 17:23:15;;;;;;;8.70;3.95;;;;;;;-3.41;57.93;99746.47;6371730;27;20039;-74
2021/12/26 17:26:16;;;;;;;7.57;4.32;;;;;;;-3.40;58.11;99751.53;6373221;27;20039;-76
2021/12/26 17:29:17;;;;;;;8.27;4.43;;;;;;;-3.36;57.70;99754.91;6355529;27;20513;-75